createdAt,value
2023-02-04T00:00:37.605Z,10.16
2023-02-04T00:03:06.886Z,10.06
2023-02-04T00:05:35.040Z,10.09
2023-02-04T00:08:03.809Z,10.02
2023-02-04T00:10:33.952Z,10.12
2023-02-04T00:13:02.148Z,10.07
2023-02-04T00:15:30.808Z,10.08
2023-02-04T00:17:59.083Z,9.98
2023-02-04T00:20:27.097Z,10.07
2023-02-04T00:22:55.182Z,9.96
2023-02-04T00:25:23.567Z,10.00
2023-02-04T00:27:52.998Z,9.95
2023-02-04T00:30:21.211Z,9.85
2023-02-04T00:32:51.234Z,9.82
2023-02-04T00:35:19.421Z,9.89
2023-02-04T00:37:47.521Z,9.92
2023-02-04T00:40:16.098Z,10.01
2023-02-04T00:42:44.079Z,9.89
2023-02-04T00:45:14.394Z,10.06
2023-02-04T00:47:42.692Z,9.99
2023-02-04T00:50:11.194Z,9.55
2023-02-04T00:52:39.134Z,9.77
2023-02-04T00:55:10.392Z,9.52
2023-02-04T00:57:38.446Z,9.61
2023-02-04T01:00:07.753Z,9.76
2023-02-04T01:02:37.677Z,9.76
2023-02-04T01:05:05.851Z,9.65
2023-02-04T01:07:34.331Z,9.81
2023-02-04T01:10:02.628Z,9.83
2023-02-04T01:12:30.809Z,9.50
2023-02-04T01:14:59.421Z,9.32
2023-02-04T01:17:27.899Z,9.13
2023-02-04T01:19:57.291Z,9.13
2023-02-04T01:22:25.289Z,9.28
2023-02-04T01:24:54.172Z,9.30
2023-02-04T01:27:37.096Z,9.21
2023-02-04T01:30:06.922Z,9.28
2023-02-04T01:32:35.169Z,9.25
2023-02-04T01:35:04.733Z,9.21
2023-02-04T01:37:33.907Z,9.05
2023-02-04T01:40:01.968Z,9.08
2023-02-04T01:42:30.169Z,9.24
2023-02-04T01:44:58.532Z,9.29
2023-02-04T01:47:26.855Z,8.81
2023-02-04T01:49:56.629Z,9.05
2023-02-04T01:52:26.569Z,8.96
2023-02-04T01:54:54.933Z,9.01
2023-02-04T01:57:24.440Z,9.08
2023-02-04T01:59:55.796Z,8.97
2023-02-04T02:02:41.770Z,9.01
2023-02-04T02:05:13.660Z,9.04
2023-02-04T02:07:43.479Z,9.05
2023-02-04T02:10:14.458Z,9.16
2023-02-04T02:12:44.285Z,9.08
2023-02-04T02:15:14.252Z,8.94
2023-02-04T02:17:43.247Z,9.14
2023-02-04T02:20:14.890Z,9.10
2023-02-04T02:22:53.704Z,9.01
2023-02-04T02:25:23.138Z,9.01
2023-02-04T02:27:51.722Z,8.85
2023-02-04T02:30:20.418Z,9.04
2023-02-04T02:32:49.709Z,8.99
2023-02-04T02:35:18.341Z,8.91
2023-02-04T02:37:46.497Z,8.97
2023-02-04T02:40:16.083Z,8.94
2023-02-04T02:42:49.198Z,9.01
2023-02-04T02:45:23.232Z,8.98
2023-02-04T02:47:52.090Z,8.94
2023-02-04T02:50:24.445Z,8.91
2023-02-04T02:52:53.680Z,8.90
2023-02-04T02:55:24.430Z,8.96
2023-02-04T02:57:55.526Z,8.92
2023-02-04T03:00:26.064Z,8.96
2023-02-04T03:03:00.719Z,8.75
2023-02-04T03:05:31.942Z,8.76
2023-02-04T03:08:00.751Z,8.89
2023-02-04T03:10:30.009Z,8.80
2023-02-04T03:13:00.891Z,8.90
2023-02-04T03:15:31.402Z,8.92
2023-02-04T03:18:00.433Z,8.95
2023-02-04T03:20:31.035Z,9.00
2023-02-04T03:22:59.587Z,9.04
2023-02-04T03:25:28.873Z,8.91
2023-02-04T03:28:00.476Z,8.96
2023-02-04T03:30:29.445Z,8.99
2023-02-04T03:32:58.376Z,8.99
2023-02-04T03:35:26.568Z,9.03
2023-02-04T03:37:55.071Z,9.02
2023-02-04T03:40:23.147Z,9.00
2023-02-04T03:42:51.122Z,9.03
2023-02-04T03:45:21.336Z,9.03
2023-02-04T03:47:49.352Z,9.03
2023-02-04T03:50:17.411Z,9.04
2023-02-04T03:52:45.898Z,8.76
2023-02-04T03:55:13.980Z,8.86
2023-02-04T03:57:41.969Z,9.07
2023-02-04T04:00:11.563Z,9.05
2023-02-04T04:02:41.635Z,9.00
2023-02-04T04:05:10.762Z,8.99
2023-02-04T04:07:39.101Z,8.95
2023-02-04T04:10:07.604Z,9.02
2023-02-04T04:12:36.222Z,9.03
2023-02-04T04:15:04.808Z,9.09
2023-02-04T04:17:32.799Z,9.03
2023-02-04T04:20:02.499Z,8.99
2023-02-04T04:22:30.691Z,9.05
2023-02-04T04:24:58.675Z,9.09
2023-02-04T04:27:27.073Z,9.07
2023-02-04T04:29:55.055Z,9.06
2023-02-04T04:32:23.431Z,9.00
2023-02-04T04:34:51.706Z,8.99
2023-02-04T04:37:20.973Z,8.92
2023-02-04T04:39:49.007Z,8.91
2023-02-04T04:42:17.243Z,8.89
2023-02-04T04:44:45.615Z,8.87
2023-02-04T04:47:13.603Z,8.81
2023-02-04T04:49:42.316Z,8.77
2023-02-04T04:52:10.909Z,8.66
2023-02-04T04:54:40.289Z,8.63
2023-02-04T04:57:08.525Z,8.45
2023-02-04T04:59:36.443Z,8.64
2023-02-04T05:02:04.465Z,8.68
2023-02-04T05:04:32.766Z,8.71
2023-02-04T05:07:00.684Z,8.71
2023-02-04T05:09:28.653Z,8.71
2023-02-04T05:11:58.193Z,8.63
2023-02-04T05:14:26.278Z,8.67
2023-02-04T05:16:54.296Z,8.69
2023-02-04T05:19:22.488Z,8.71
2023-02-04T05:21:50.508Z,8.72
2023-02-04T05:24:18.534Z,8.75
2023-02-04T05:26:46.848Z,8.72
2023-02-04T05:29:16.146Z,8.68
2023-02-04T05:31:44.123Z,8.57
2023-02-04T05:34:12.395Z,8.41
2023-02-04T05:36:40.475Z,8.43
2023-02-04T05:39:08.455Z,8.40
2023-02-04T05:41:36.630Z,8.52
2023-02-04T05:44:04.823Z,8.59
2023-02-04T05:46:34.120Z,8.59
2023-02-04T05:49:02.372Z,8.55
2023-02-04T05:51:30.344Z,8.53
2023-02-04T05:53:58.314Z,8.45
2023-02-04T05:56:26.635Z,8.40
2023-02-04T05:58:54.796Z,8.44
2023-02-04T06:01:22.757Z,8.48
2023-02-04T06:03:52.496Z,8.41
2023-02-04T06:06:20.448Z,8.37
2023-02-04T06:08:48.337Z,8.32
2023-02-04T06:11:16.804Z,8.24
2023-02-04T06:13:44.845Z,8.41
2023-02-04T06:16:14.852Z,8.38
2023-02-04T06:18:43.223Z,8.43
2023-02-04T06:21:12.496Z,8.40
2023-02-04T06:23:40.480Z,8.46
2023-02-04T06:26:08.744Z,8.42
2023-02-04T06:28:36.818Z,8.34
2023-02-04T06:31:05.398Z,8.37
2023-02-04T06:33:33.708Z,8.31
2023-02-04T06:36:01.819Z,8.28
2023-02-04T06:38:31.514Z,8.28
2023-02-04T06:40:59.830Z,8.28
2023-02-04T06:43:28.047Z,8.29
2023-02-04T06:45:56.227Z,8.27
2023-02-04T06:48:24.659Z,8.28
2023-02-04T06:50:52.606Z,8.25
2023-02-04T06:53:20.590Z,8.18
2023-02-04T06:55:50.268Z,8.08
2023-02-04T06:58:18.291Z,8.07
2023-02-04T07:00:46.226Z,8.06
2023-02-04T07:03:14.497Z,8.03
2023-02-04T07:05:42.577Z,8.02
2023-02-04T07:08:10.468Z,7.98
2023-02-04T07:10:38.743Z,7.97
2023-02-04T07:13:08.162Z,7.93
2023-02-04T07:15:36.323Z,7.92
2023-02-04T07:18:05.040Z,7.92
2023-02-04T07:20:33.578Z,7.89
2023-02-04T07:23:01.909Z,7.90
2023-02-04T07:25:30.283Z,7.90
2023-02-04T07:27:59.388Z,7.91
2023-02-04T07:30:28.791Z,7.94
2023-02-04T07:32:57.104Z,7.92
2023-02-04T07:35:25.290Z,7.95
2023-02-04T07:37:53.292Z,7.97
2023-02-04T07:40:22.247Z,8.02
2023-02-04T07:42:50.260Z,8.04
2023-02-04T07:45:18.785Z,7.99
2023-02-04T07:47:48.591Z,8.03
2023-02-04T07:50:17.489Z,8.11
2023-02-04T07:52:45.663Z,8.11
2023-02-04T07:55:14.057Z,7.97
2023-02-04T07:57:42.228Z,8.16
2023-02-04T08:00:14.136Z,8.07
2023-02-04T08:02:42.816Z,8.03
2023-02-04T08:05:12.387Z,8.16
2023-02-04T08:07:40.592Z,8.25
2023-02-04T08:10:10.327Z,8.29
2023-02-04T08:12:38.393Z,8.32
2023-02-04T08:15:08.478Z,8.34
2023-02-04T08:17:37.164Z,8.37
2023-02-04T08:20:05.641Z,8.43
2023-02-04T08:22:35.360Z,8.43
2023-02-04T08:25:05.303Z,8.42
2023-02-04T08:27:33.571Z,8.43
2023-02-04T08:30:01.761Z,8.46
2023-02-04T08:32:31.266Z,8.55
2023-02-04T08:34:59.446Z,8.57
2023-02-04T08:37:27.524Z,8.55
2023-02-04T08:39:57.240Z,8.60
2023-02-04T08:42:25.428Z,8.69
2023-02-04T08:44:53.423Z,8.70
2023-02-04T08:47:21.727Z,8.76
2023-02-04T08:49:49.835Z,8.70
2023-02-04T08:52:17.816Z,8.73
2023-02-04T08:54:48.146Z,8.80
2023-02-04T08:57:17.589Z,8.89
2023-02-04T08:59:46.162Z,8.93
2023-02-04T09:02:14.430Z,9.10
2023-02-04T09:04:42.628Z,9.18
2023-02-04T09:07:11.066Z,9.26
2023-02-04T09:09:39.126Z,9.25
2023-02-04T09:12:07.309Z,9.15
2023-02-04T09:14:36.921Z,9.21
2023-02-04T09:17:06.076Z,9.36
2023-02-04T09:19:34.105Z,9.43
2023-02-04T09:22:02.449Z,9.44
2023-02-04T09:24:30.523Z,9.44
2023-02-04T09:26:58.531Z,9.53
2023-02-04T09:29:26.875Z,9.66
2023-02-04T09:31:56.343Z,9.73
2023-02-04T09:34:24.668Z,9.57
2023-02-04T09:36:53.373Z,9.75
2023-02-04T09:39:21.562Z,9.64
2023-02-04T09:41:49.986Z,9.70
2023-02-04T09:44:21.349Z,9.77
2023-02-04T09:46:51.739Z,9.73
2023-02-04T09:49:21.751Z,9.98
2023-02-04T09:51:50.966Z,10.04
2023-02-04T09:54:20.850Z,9.97
2023-02-04T09:56:49.132Z,10.38
2023-02-04T09:59:18.903Z,10.51
2023-02-04T10:01:49.569Z,10.72
2023-02-04T10:04:17.856Z,10.72
2023-02-04T10:06:47.451Z,10.78
2023-02-04T10:09:17.910Z,10.72
2023-02-04T10:11:49.046Z,10.77
2023-02-04T10:14:21.056Z,10.72
2023-02-04T10:16:57.213Z,10.75
2023-02-04T10:19:28.586Z,10.93
2023-02-04T10:21:58.925Z,10.86
2023-02-04T10:24:30.721Z,10.85
2023-02-04T10:27:09.341Z,11.24
2023-02-04T10:29:37.952Z,11.38
2023-02-04T10:32:06.304Z,11.27
2023-02-04T10:34:37.901Z,11.05
2023-02-04T10:37:21.184Z,11.13
2023-02-04T10:39:49.995Z,11.16
2023-02-04T10:42:23.495Z,11.35
2023-02-04T10:44:52.167Z,11.54
2023-02-04T10:47:22.327Z,11.84
2023-02-04T10:49:55.624Z,11.53
2023-02-04T10:52:28.384Z,11.57
2023-02-04T10:54:55.637Z,11.61
2023-02-04T10:57:27.498Z,11.76
2023-02-04T10:59:58.866Z,11.97
2023-02-04T11:02:41.577Z,12.14
2023-02-04T11:05:14.478Z,12.25
2023-02-04T11:07:45.581Z,12.26
2023-02-04T11:10:16.335Z,12.31
2023-02-04T11:12:47.743Z,12.32
2023-02-04T11:15:38.668Z,12.13
2023-02-04T11:18:09.102Z,12.29
2023-02-04T11:20:39.867Z,12.50
2023-02-04T11:23:18.263Z,12.36
2023-02-04T11:25:46.396Z,12.70
2023-02-04T11:28:16.046Z,12.75
2023-02-04T11:30:44.285Z,12.73
2023-02-04T11:33:24.905Z,12.71
2023-02-04T11:36:04.597Z,12.48
2023-02-04T11:38:34.977Z,12.06
2023-02-04T11:41:03.894Z,12.27
2023-02-04T11:43:35.549Z,12.07
2023-02-04T11:46:08.488Z,11.91
2023-02-04T11:48:37.425Z,12.16
2023-02-04T11:51:13.983Z,12.34
2023-02-04T11:53:43.782Z,12.23
2023-02-04T11:56:19.016Z,12.44
2023-02-04T11:58:48.575Z,12.70
2023-02-04T12:01:21.463Z,12.82
2023-02-04T12:03:51.835Z,13.00
2023-02-04T12:06:24.141Z,13.16
2023-02-04T12:08:54.365Z,12.63
2023-02-04T12:11:30.404Z,12.71
2023-02-04T12:14:00.811Z,12.05
2023-02-04T12:16:29.019Z,11.97
2023-02-04T12:18:57.094Z,12.23
2023-02-04T12:21:25.532Z,12.20
2023-02-04T12:23:54.884Z,12.30
2023-02-04T12:26:22.966Z,12.29
2023-02-04T12:28:51.487Z,12.43
2023-02-04T12:31:20.329Z,12.45
2023-02-04T12:33:48.735Z,12.26
2023-02-04T12:36:17.588Z,12.15
2023-02-04T12:38:46.325Z,12.21
2023-02-04T12:41:15.850Z,12.44
2023-02-04T12:43:44.138Z,12.29
2023-02-04T12:46:12.317Z,12.65
2023-02-04T12:48:41.176Z,12.93
2023-02-04T12:51:09.610Z,13.07
2023-02-04T12:53:37.576Z,13.21
2023-02-04T12:56:06.428Z,13.34
2023-02-04T12:58:36.040Z,13.42
2023-02-04T13:01:04.692Z,13.47
2023-02-04T13:03:33.241Z,13.50
2023-02-04T13:06:01.527Z,12.93
2023-02-04T13:08:29.549Z,12.89
2023-02-04T13:10:57.582Z,13.18
2023-02-04T13:13:25.956Z,13.40
2023-02-04T13:15:55.513Z,13.55
2023-02-04T13:18:23.743Z,13.55
2023-02-04T13:20:52.139Z,13.48
2023-02-04T13:23:20.411Z,13.27
2023-02-04T13:25:48.409Z,13.03
2023-02-04T13:28:16.670Z,13.18
2023-02-04T13:30:44.709Z,13.21
2023-02-04T13:33:14.087Z,13.26
2023-02-04T13:35:42.352Z,13.44
2023-02-04T13:38:10.702Z,13.26
2023-02-04T13:40:39.516Z,13.26
2023-02-04T13:43:07.794Z,13.13
2023-02-04T13:45:36.133Z,12.94
2023-02-04T13:48:04.445Z,12.99
2023-02-04T13:50:34.416Z,13.09
2023-02-04T13:53:02.648Z,13.13
2023-02-04T13:55:31.291Z,12.95
2023-02-04T13:57:59.842Z,12.93
2023-02-04T14:00:27.924Z,12.99
2023-02-04T14:02:56.735Z,12.94
2023-02-04T14:05:24.891Z,12.79
2023-02-04T14:07:54.280Z,12.95
2023-02-04T14:10:24.875Z,12.91
2023-02-04T14:12:53.244Z,12.93
2023-02-04T14:15:21.572Z,12.97
2023-02-04T14:17:49.913Z,12.89
2023-02-04T14:20:18.239Z,12.93
2023-02-04T14:22:46.274Z,12.90
2023-02-04T14:25:15.992Z,12.83
2023-02-04T14:27:44.029Z,12.73
2023-02-04T14:30:18.225Z,12.61
2023-02-04T14:32:46.521Z,11.98
2023-02-04T14:35:15.653Z,12.18
2023-02-04T14:37:43.822Z,12.30
2023-02-04T14:40:14.042Z,12.29
2023-02-04T14:42:43.356Z,11.93
2023-02-04T14:45:13.330Z,11.78
2023-02-04T14:47:42.180Z,12.00
2023-02-04T14:50:14.370Z,11.76
2023-02-04T14:52:42.676Z,11.93
2023-02-04T14:55:11.902Z,12.00
2023-02-04T14:57:40.178Z,11.98
2023-02-04T15:00:14.222Z,11.80
2023-02-04T15:02:42.652Z,11.50
2023-02-04T15:05:11.579Z,11.49
2023-02-04T15:07:39.784Z,11.39
2023-02-04T15:10:08.138Z,11.05
2023-02-04T15:12:36.736Z,10.89
2023-02-04T15:15:05.387Z,10.54
2023-02-04T15:17:34.811Z,10.69
2023-02-04T15:20:04.258Z,10.72
2023-02-04T15:22:32.267Z,10.48
2023-02-04T15:25:00.274Z,10.54
2023-02-04T15:27:28.464Z,10.39
2023-02-04T15:29:56.484Z,10.50
2023-02-04T15:32:24.610Z,10.37
2023-02-04T15:34:54.136Z,10.17
2023-02-04T15:37:22.132Z,10.44
2023-02-04T15:39:50.188Z,10.38
2023-02-04T15:42:18.387Z,10.45
2023-02-04T15:44:46.336Z,10.45
2023-02-04T15:47:14.318Z,10.29
2023-02-04T15:49:42.603Z,10.26
2023-02-04T15:52:19.569Z,10.23
2023-02-04T15:54:51.450Z,10.07
2023-02-04T15:57:19.500Z,10.19
2023-02-04T15:59:47.837Z,10.16
2023-02-04T16:02:16.316Z,10.00
2023-02-04T16:04:45.533Z,10.03
2023-02-04T16:07:14.889Z,9.93
2023-02-04T16:09:43.818Z,9.91
2023-02-04T16:12:12.099Z,9.78
2023-02-04T16:14:40.050Z,9.54
2023-02-04T16:17:09.660Z,9.63
2023-02-04T16:19:37.847Z,9.65
2023-02-04T16:22:06.359Z,9.67
2023-02-04T16:24:35.764Z,9.60
2023-02-04T16:27:04.379Z,9.53
2023-02-04T16:29:32.483Z,9.37
2023-02-04T16:32:00.723Z,9.39
2023-02-04T16:34:29.412Z,9.23
2023-02-04T16:37:08.437Z,9.02
2023-02-04T16:39:39.438Z,9.09
2023-02-04T16:42:08.872Z,9.13
2023-02-04T16:44:37.623Z,9.10
2023-02-04T16:47:07.229Z,9.08
2023-02-04T16:49:35.944Z,9.01
2023-02-04T16:52:05.290Z,8.99
2023-02-04T16:54:34.536Z,8.90
2023-02-04T16:57:04.462Z,8.84
2023-02-04T16:59:33.387Z,8.71
2023-02-04T17:02:01.481Z,8.70
2023-02-04T17:04:30.528Z,8.66
2023-02-04T17:07:00.406Z,8.61
2023-02-04T17:09:28.385Z,8.59
2023-02-04T17:11:56.317Z,8.55
2023-02-04T17:14:25.965Z,8.39
2023-02-04T17:16:53.975Z,8.35
2023-02-04T17:19:22.370Z,8.26
2023-02-04T17:21:50.642Z,8.21
2023-02-04T17:24:18.727Z,8.15
2023-02-04T17:26:46.712Z,8.08
2023-02-04T17:29:17.281Z,8.02
2023-02-04T17:31:46.732Z,7.99
2023-02-04T17:34:15.048Z,7.95
2023-02-04T17:36:43.021Z,7.90
2023-02-04T17:39:11.005Z,7.87
2023-02-04T17:41:39.288Z,7.83
2023-02-04T17:44:07.475Z,7.76
2023-02-04T17:46:35.675Z,7.70
2023-02-04T17:49:05.230Z,7.61
2023-02-04T17:51:33.188Z,7.57
2023-02-04T17:54:01.328Z,7.54
2023-02-04T17:56:29.672Z,7.53
2023-02-04T17:58:58.147Z,7.49
2023-02-04T18:01:26.317Z,7.43
2023-02-04T18:03:55.021Z,7.38
2023-02-04T18:06:28.455Z,7.31
2023-02-04T18:09:01.849Z,7.24
2023-02-04T18:11:32.989Z,7.20
2023-02-04T18:14:06.499Z,7.14
2023-02-04T18:16:36.792Z,7.06
2023-02-04T18:19:18.325Z,7.03
2023-02-04T18:21:49.065Z,7.05
2023-02-04T18:24:19.592Z,7.01
2023-02-04T18:26:49.885Z,7.01
2023-02-04T18:29:33.633Z,7.03
2023-02-04T18:32:03.937Z,7.09
2023-02-04T18:34:36.615Z,7.09
2023-02-04T18:37:32.764Z,7.10
2023-02-04T18:40:23.638Z,7.14
2023-02-04T18:43:02.598Z,7.16
2023-02-04T18:45:33.465Z,7.11
2023-02-04T18:48:07.216Z,7.10
2023-02-04T18:50:36.708Z,7.12
2023-02-04T18:53:20.697Z,7.10
2023-02-04T18:55:51.203Z,7.13
2023-02-04T18:58:29.416Z,7.08
2023-02-04T19:01:00.476Z,7.05
2023-02-04T19:03:30.925Z,7.00
2023-02-04T19:06:00.500Z,6.98
2023-02-04T19:08:33.337Z,6.95
2023-02-04T19:11:01.652Z,6.93
2023-02-04T19:13:39.958Z,6.91
2023-02-04T19:16:21.669Z,6.89
2023-02-04T19:18:50.569Z,6.87
2023-02-04T19:21:25.959Z,6.85
2023-02-04T19:24:00.553Z,6.84
2023-02-04T19:26:33.102Z,6.84
2023-02-04T19:29:01.710Z,6.82
2023-02-04T19:31:35.247Z,6.80
2023-02-04T19:34:22.428Z,6.77
2023-02-04T19:36:50.634Z,6.78
2023-02-04T19:39:30.731Z,6.81
2023-02-04T19:41:58.952Z,6.86
2023-02-04T19:44:41.801Z,6.90
2023-02-04T19:47:23.365Z,6.94
2023-02-04T19:49:52.288Z,7.01
2023-02-04T19:52:36.163Z,7.03
2023-02-04T19:55:35.384Z,7.08
2023-02-04T19:58:16.317Z,7.17
2023-02-04T20:00:47.545Z,7.14
2023-02-04T20:03:34.237Z,7.17
2023-02-04T20:06:20.706Z,7.20
2023-02-04T20:08:52.600Z,7.19
2023-02-04T20:11:50.042Z,7.19
2023-02-04T20:14:25.905Z,7.22
2023-02-04T20:16:57.598Z,7.19
2023-02-04T20:19:33.534Z,7.17
2023-02-04T20:22:33.004Z,7.16
2023-02-04T20:25:43.140Z,7.14
2023-02-04T20:28:34.357Z,7.16
2023-02-04T20:31:04.430Z,7.13
2023-02-04T20:33:45.062Z,7.12
2023-02-04T20:36:38.253Z,7.14
2023-02-04T20:39:36.888Z,7.17
2023-02-04T20:42:39.033Z,7.17
2023-02-04T20:45:29.749Z,7.17
2023-02-04T20:48:01.032Z,7.15
2023-02-04T20:50:43.561Z,7.14
2023-02-04T20:53:21.983Z,7.15
2023-02-04T20:55:52.297Z,7.13
2023-02-04T20:58:22.731Z,7.14
2023-02-04T21:00:56.627Z,7.14
2023-02-04T21:03:28.236Z,7.15
2023-02-04T21:05:58.678Z,7.17
2023-02-04T21:08:45.548Z,7.19
2023-02-04T21:11:13.830Z,7.26
2023-02-04T21:13:42.110Z,7.26
2023-02-04T21:16:11.642Z,7.23
2023-02-04T21:18:39.730Z,7.22
2023-02-04T21:21:10.161Z,7.22
2023-02-04T21:23:38.128Z,7.21
2023-02-04T21:26:07.090Z,7.24
2023-02-04T21:28:35.364Z,7.19
2023-02-04T21:31:03.560Z,7.17
2023-02-04T21:33:33.067Z,7.16
2023-02-04T21:36:01.463Z,7.11
2023-02-04T21:38:29.612Z,7.11
2023-02-04T21:40:57.616Z,7.08
2023-02-04T21:43:26.089Z,7.06
2023-02-04T21:45:54.057Z,7.08
2023-02-04T21:48:22.076Z,7.08
2023-02-04T21:50:51.868Z,7.10
2023-02-04T21:53:19.843Z,7.08
2023-02-04T21:55:47.831Z,7.12
2023-02-04T21:58:16.109Z,7.13
2023-02-04T22:00:44.395Z,7.13
2023-02-04T22:03:17.197Z,7.13
2023-02-04T22:05:45.836Z,7.13
2023-02-04T22:08:15.473Z,7.12
2023-02-04T22:10:43.479Z,7.10
2023-02-04T22:13:29.095Z,7.09
2023-02-04T22:15:57.477Z,7.07
2023-02-04T22:18:25.456Z,7.03
2023-02-04T22:20:53.447Z,7.01
2023-02-04T22:23:23.149Z,6.97
2023-02-04T22:25:51.127Z,6.90
2023-02-04T22:28:19.254Z,6.85
2023-02-04T22:30:47.748Z,6.77
2023-02-04T22:33:15.800Z,6.71
2023-02-04T22:35:43.772Z,6.63
2023-02-04T22:38:12.101Z,6.52
2023-02-04T22:40:41.478Z,6.45
2023-02-04T22:43:09.407Z,6.39
2023-02-04T22:45:37.799Z,6.33
2023-02-04T22:48:05.872Z,6.25
2023-02-04T22:50:33.842Z,6.12
2023-02-04T22:53:02.029Z,6.08
2023-02-04T22:55:30.045Z,6.01
2023-02-04T22:57:59.319Z,5.91
2023-02-04T23:00:27.940Z,5.87
2023-02-04T23:02:56.395Z,5.87
2023-02-04T23:05:24.687Z,5.77
2023-02-04T23:07:53.032Z,5.71
2023-02-04T23:10:21.044Z,5.66
2023-02-04T23:12:49.033Z,5.61
2023-02-04T23:15:18.714Z,5.57
2023-02-04T23:17:46.795Z,5.55
2023-02-04T23:20:14.958Z,5.51
2023-02-04T23:22:43.325Z,5.44
2023-02-04T23:25:11.416Z,5.45
2023-02-04T23:27:39.814Z,5.41
2023-02-04T23:30:10.553Z,5.37
2023-02-04T23:32:39.858Z,5.34
2023-02-04T23:35:08.942Z,5.29
2023-02-04T23:37:37.332Z,5.14
2023-02-04T23:40:06.291Z,5.07
2023-02-04T23:42:34.727Z,4.99
2023-02-04T23:45:02.806Z,4.96
2023-02-04T23:47:30.915Z,4.94
2023-02-04T23:50:00.519Z,4.97
2023-02-04T23:52:29.438Z,4.98
2023-02-04T23:54:57.615Z,4.96
2023-02-04T23:57:25.839Z,4.94
2023-02-04T23:59:53.866Z,4.84
